Time;durP1;ratioP1;P1;durP2;ratioP2;P2;SDS_P1;SDS_P2;PMS_P1;PMS_P2;Temp;Humidity;BMP_temperature;BMP_pressure;BME280_temperature;BME280_humidity;BME280_pressure;Samples;Min_cycle;Max_cycle;Signal;HPM_P1;HPM_P2
2021/03/30 00:01:20;;;;;;;5.40;3.10;;;9.30;93.10;;;;;;5033413;28;20385;-80
2021/03/30 00:03:46;;;;;;;9.57;3.20;;;9.30;93.20;;;;;;5041886;28;20058;-82
2021/03/30 00:06:12;;;;;;;6.63;3.00;;;9.20;93.10;;;;;;5034211;28;20408;-81
2021/03/30 00:08:38;;;;;;;8.30;3.40;;;9.30;93.10;;;;;;5046728;28;20094;-81
2021/03/30 00:11:04;;;;;;;7.88;3.20;;;9.20;93.20;;;;;;5033700;28;20057;-81
2021/03/30 00:13:31;;;;;;;7.90;3.22;;;9.20;93.20;;;;;;5032799;28;20048;-82
2021/03/30 00:15:57;;;;;;;7.07;3.55;;;9.20;93.20;;;;;;5032926;28;20026;-81
2021/03/30 00:18:23;;;;;;;6.55;3.50;;;9.20;93.20;;;;;;5038202;28;20029;-81
2021/03/30 00:20:49;;;;;;;10.57;3.92;;;9.20;93.30;;;;;;5037465;28;20021;-81
2021/03/30 00:23:14;;;;;;;7.93;3.92;;;9.20;93.30;;;;;;5039036;28;20501;-81
2021/03/30 00:25:41;;;;;;;10.15;3.72;;;9.20;93.30;;;;;;5050024;28;20032;-83
2021/03/30 00:28:06;;;;;;;10.77;4.03;;;9.10;93.40;;;;;;5036443;28;20143;-81
2021/03/30 00:30:32;;;;;;;8.80;4.03;;;9.10;93.30;;;;;;5049290;28;20029;-82
2021/03/30 00:32:59;;;;;;;8.60;3.80;;;9.10;93.30;;;;;;5049663;28;20041;-82
2021/03/30 00:35:25;;;;;;;7.65;3.67;;;9.10;93.30;;;;;;5052535;28;20025;-82
2021/03/30 00:37:50;;;;;;;8.18;3.40;;;9.10;93.30;;;;;;5037864;28;20617;-81
2021/03/30 00:40:16;;;;;;;8.35;3.65;;;9.10;93.30;;;;;;5052709;28;20030;-82
2021/03/30 00:42:42;;;;;;;7.57;3.13;;;9.10;93.30;;;;;;5052681;28;20083;-81
2021/03/30 00:45:10;;;;;;;8.68;3.35;;;9.00;93.40;;;;;;5035451;28;20029;-81
2021/03/30 00:47:39;;;;;;;8.90;3.78;;;9.00;93.40;;;;;;5044084;28;20033;-81
2021/03/30 00:50:06;;;;;;;7.53;3.03;;;8.90;93.50;;;;;;5049504;28;20040;-80
2021/03/30 00:52:32;;;;;;;6.38;3.20;;;9.00;93.40;;;;;;5029867;28;20068;-81
2021/03/30 00:54:58;;;;;;;4.95;2.80;;;8.90;93.40;;;;;;5034605;28;20029;-81
2021/03/30 00:57:23;;;;;;;7.57;3.30;;;8.90;93.50;;;;;;5047035;28;20029;-81
2021/03/30 00:59:49;;;;;;;8.98;3.45;;;8.90;93.60;;;;;;5045843;28;20423;-82
2021/03/30 01:02:15;;;;;;;6.90;3.00;;;8.90;93.70;;;;;;5042095;28;21168;-81
2021/03/30 01:04:40;;;;;;;8.60;3.25;;;8.80;93.80;;;;;;5051293;28;20438;-81
2021/03/30 01:07:07;;;;;;;12.32;3.35;;;8.80;93.90;;;;;;5042459;28;20052;-81
2021/03/30 01:09:55;;;;;;;7.72;3.20;;;8.70;93.90;;;;;;5048178;28;20029;-82
2021/03/30 01:12:52;;;;;;;7.70;3.65;;;8.70;93.80;;;;;;5035832;28;20021;-81
2021/03/30 01:15:50;;;;;;;7.05;3.15;;;8.70;93.90;;;;;;5021729;28;20080;-82
2021/03/30 01:18:33;;;;;;;8.88;2.88;;;8.70;94.00;;;;;;5049915;28;20040;-81
2021/03/30 01:21:13;;;;;;;10.15;3.38;;;8.60;94.10;;;;;;5057408;28;20033;-82
2021/03/30 01:24:13;;;;;;;8.38;4.00;;;8.60;94.40;;;;;;5039588;28;20025;-81
2021/03/30 01:26:56;;;;;;;10.70;3.70;;;8.50;94.70;;;;;;5045208;28;20032;-80
2021/03/30 01:29:52;;;;;;;10.98;3.30;;;8.50;94.80;;;;;;5048835;28;20123;-81
2021/03/30 01:32:37;;;;;;;5.45;3.20;;;8.40;94.70;;;;;;5044379;28;20057;-80
2021/03/30 01:35:07;;;;;;;8.30;3.17;;;8.40;94.90;;;;;;5036778;28;20389;-81
2021/03/30 01:37:39;;;;;;;5.97;3.00;;;8.30;94.80;;;;;;5030417;28;20013;-80
2021/03/30 01:40:06;;;;;;;8.27;3.35;;;8.30;94.70;;;;;;5042088;28;20089;-80
2021/03/30 01:42:32;;;;;;;6.03;3.20;;;8.30;94.60;;;;;;5050468;28;20044;-80
2021/03/30 01:44:59;;;;;;;6.93;3.30;;;8.30;94.60;;;;;;5043614;28;20116;-81
2021/03/30 01:47:28;;;;;;;9.30;3.30;;;8.30;94.40;;;;;;5045350;28;20112;-81
2021/03/30 01:49:55;;;;;;;7.32;3.05;;;8.40;94.40;;;;;;5036671;28;20439;-81
2021/03/30 01:52:21;;;;;;;5.97;2.53;;;8.40;94.50;;;;;;5051416;28;20029;-82
2021/03/30 01:54:48;;;;;;;5.07;2.55;;;8.40;94.40;;;;;;5037998;28;20065;-80
2021/03/30 01:57:18;;;;;;;4.53;2.63;;;8.40;94.50;;;;;;5047102;28;20115;-81
2021/03/30 01:59:46;;;;;;;6.82;2.30;;;8.40;94.60;;;;;;5035850;28;20025;-81
2021/03/30 02:02:12;;;;;;;6.65;2.55;;;8.30;94.70;;;;;;5042451;28;20194;-81
2021/03/30 02:04:39;;;;;;;5.13;2.47;;;8.30;94.90;;;;;;5045437;28;20033;-83
2021/03/30 02:07:06;;;;;;;5.40;2.42;;;8.20;95.10;;;;;;5032319;28;20420;-82
2021/03/30 02:09:37;;;;;;;5.80;2.38;;;8.20;95.40;;;;;;5035940;28;20109;-81
2021/03/30 02:12:16;;;;;;;6.13;2.80;;;8.10;95.20;;;;;;5059226;28;20116;-80
2021/03/30 02:14:42;;;;;;;6.33;2.60;;;8.00;95.60;;;;;;5040205;28;20033;-81
2021/03/30 02:17:37;;;;;;;8.38;2.85;;;8.00;95.70;;;;;;5041378;28;20029;-81
2021/03/30 02:20:16;;;;;;;4.88;2.65;;;7.90;96.00;;;;;;5014563;28;20109;-81
2021/03/30 02:22:56;;;;;;;5.60;2.40;;;7.90;95.70;;;;;;5043282;28;20047;-80
2021/03/30 02:25:22;;;;;;;6.13;2.70;;;7.80;96.20;;;;;;5029807;28;20025;-82
2021/03/30 02:27:51;;;;;;;5.53;2.67;;;7.70;96.10;;;;;;5043838;28;20421;-80
2021/03/30 02:30:18;;;;;;;4.93;2.35;;;7.70;96.30;;;;;;5033102;28;20034;-81
2021/03/30 02:32:46;;;;;;;6.07;2.50;;;7.50;96.60;;;;;;5045090;28;20029;-79
2021/03/30 02:35:13;;;;;;;6.45;2.58;;;7.50;96.80;;;;;;5053664;28;20119;-81
2021/03/30 02:37:40;;;;;;;5.07;2.35;;;7.40;97.20;;;;;;5041332;28;20021;-80
2021/03/30 02:40:11;;;;;;;3.83;2.25;;;7.30;97.40;;;;;;5041220;28;20029;-80
2021/03/30 02:42:39;;;;;;;5.97;2.67;;;7.40;97.10;;;;;;5039180;28;20029;-82
2021/03/30 02:45:06;;;;;;;6.80;2.70;;;7.40;97.30;;;;;;5044114;28;20100;-80
2021/03/30 02:47:33;;;;;;;6.35;2.53;;;7.40;97.00;;;;;;5045420;28;20033;-82
2021/03/30 02:50:01;;;;;;;5.60;2.40;;;7.50;97.00;;;;;;5033552;28;20018;-80
2021/03/30 02:52:28;;;;;;;6.93;2.70;;;7.50;96.80;;;;;;5030351;28;20030;-79
2021/03/30 02:54:55;;;;;;;6.47;2.70;;;7.50;96.80;;;;;;5032681;28;20056;-82
2021/03/30 02:57:23;;;;;;;6.97;3.05;;;7.30;97.60;;;;;;5035553;28;20029;-81
2021/03/30 02:59:49;;;;;;;5.20;2.85;;;7.10;98.60;;;;;;5028662;28;20080;-80
2021/03/30 03:02:15;;;;;;;6.00;2.85;;;7.00;98.80;;;;;;5039670;28;20041;-80
2021/03/30 03:04:43;;;;;;;5.13;2.65;;;6.90;99.00;;;;;;5036304;28;20065;-80
2021/03/30 03:07:10;;;;;;;9.82;2.83;;;6.80;99.30;;;;;;5032966;28;20033;-81
2021/03/30 03:09:38;;;;;;;6.10;2.90;;;6.70;99.40;;;;;;5043269;28;20184;-81
2021/03/30 03:12:06;;;;;;;11.60;3.75;;;6.70;99.90;;;;;;5042052;28;20026;-82
2021/03/30 03:14:32;;;;;;;9.40;3.65;;;6.60;99.80;;;;;;5043457;28;20033;-81
2021/03/30 03:16:59;;;;;;;7.57;2.83;;;6.50;99.90;;;;;;5067613;28;20040;-80
2021/03/30 03:19:27;;;;;;;6.00;3.50;;;6.50;99.90;;;;;;5049908;28;20053;-81
2021/03/30 03:21:53;;;;;;;6.78;3.15;;;6.40;99.90;;;;;;5046683;28;20028;-80
2021/03/30 03:24:20;;;;;;;8.55;3.70;;;6.40;99.90;;;;;;5019337;28;20036;-80
2021/03/30 03:26:45;;;;;;;7.57;3.38;;;6.30;99.90;;;;;;5027160;28;20033;-81
2021/03/30 03:29:17;;;;;;;9.85;4.03;;;6.30;99.90;;;;;;5047530;28;20111;-82
2021/03/30 03:31:43;;;;;;;8.30;3.42;;;6.30;99.90;;;;;;5045545;28;20082;-81
2021/03/30 03:34:11;;;;;;;8.93;3.17;;;6.30;99.90;;;;;;5049711;28;20041;-82
2021/03/30 03:36:42;;;;;;;8.68;3.78;;;6.30;99.90;;;;;;5033829;28;20522;-84
2021/03/30 03:39:10;;;;;;;6.88;3.25;;;6.30;99.90;;;;;;5018664;28;20464;-80
2021/03/30 03:41:36;;;;;;;7.00;2.80;;;6.40;99.90;;;;;;5042663;28;20033;-81
2021/03/30 03:44:04;;;;;;;7.53;2.88;;;6.40;99.90;;;;;;5044719;28;20077;-81
2021/03/30 03:46:30;;;;;;;10.88;3.67;;;6.30;99.90;;;;;;5037525;28;20113;-81
2021/03/30 03:48:56;;;;;;;5.80;2.90;;;6.30;99.90;;;;;;5022084;28;20056;-81
2021/03/30 03:51:23;;;;;;;7.18;3.00;;;6.30;99.90;;;;;;5034862;28;20094;-81
2021/03/30 03:53:52;;;;;;;6.97;2.63;;;6.30;99.90;;;;;;5050264;28;20192;-81
2021/03/30 03:56:23;;;;;;;7.30;3.10;;;6.30;99.90;;;;;;5046301;28;20080;-80
2021/03/30 03:58:54;;;;;;;7.82;3.40;;;6.20;99.90;;;;;;5012489;28;20033;-81
2021/03/30 04:01:25;;;;;;;5.53;3.13;;;6.20;99.90;;;;;;5037790;28;20436;-82
2021/03/30 04:03:59;;;;;;;5.78;3.08;;;6.10;99.90;;;;;;5051701;28;20049;-81
2021/03/30 04:06:31;;;;;;;4.68;2.83;;;6.10;99.90;;;;;;5037781;28;20063;-81
2021/03/30 04:09:00;;;;;;;6.47;3.30;;;6.20;99.90;;;;;;5034380;28;20029;-82
2021/03/30 04:11:28;;;;;;;5.50;3.05;;;6.10;99.90;;;;;;5042980;28;20041;-82
2021/03/30 04:13:56;;;;;;;6.68;2.97;;;6.20;99.90;;;;;;5031574;28;20037;-81
2021/03/30 04:16:22;;;;;;;5.57;2.90;;;6.20;99.90;;;;;;5030100;28;20034;-81
2021/03/30 04:18:47;;;;;;;7.63;3.00;;;6.20;99.90;;;;;;5047942;28;20468;-80
2021/03/30 04:21:43;;;;;;;8.45;3.17;;;6.20;99.90;;;;;;5030245;28;20050;-80
2021/03/30 04:24:09;;;;;;;9.30;3.42;;;6.10;99.90;;;;;;5010064;28;20515;-81
2021/03/30 04:26:39;;;;;;;8.25;3.40;;;6.10;99.90;;;;;;5013139;28;20101;-82
2021/03/30 04:29:05;;;;;;;7.70;2.88;;;6.10;99.90;;;;;;5009376;28;20096;-80
2021/03/30 04:31:31;;;;;;;5.88;3.25;;;6.00;99.90;;;;;;5009427;28;20026;-80
2021/03/30 04:33:56;;;;;;;7.22;3.58;;;6.00;99.90;;;;;;5009114;28;20453;-80
2021/03/30 04:36:22;;;;;;;7.65;3.25;;;6.00;99.90;;;;;;5008949;28;20046;-82
2021/03/30 04:38:49;;;;;;;6.97;3.25;;;6.00;99.90;;;;;;4993145;28;20121;-80
2021/03/30 04:41:15;;;;;;;6.32;3.00;;;6.00;99.90;;;;;;5010641;28;20165;-82
2021/03/30 04:43:40;;;;;;;5.93;2.95;;;5.90;99.90;;;;;;5019748;28;20741;-82
2021/03/30 04:46:07;;;;;;;5.50;2.85;;;5.90;99.90;;;;;;5010181;28;20051;-81
2021/03/30 04:48:33;;;;;;;8.02;2.80;;;5.90;99.90;;;;;;5025157;28;20094;-81
2021/03/30 04:50:59;;;;;;;9.52;3.20;;;5.80;99.90;;;;;;5008841;28;20091;-81
2021/03/30 04:53:25;;;;;;;7.15;3.30;;;5.90;99.90;;;;;;5004935;28;20153;-81
2021/03/30 04:55:50;;;;;;;5.03;3.08;;;5.80;99.90;;;;;;5009609;28;20034;-81
2021/03/30 04:58:16;;;;;;;7.75;3.20;;;5.80;99.90;;;;;;5009141;28;20052;-82
2021/03/30 05:00:41;;;;;;;6.35;3.08;;;5.70;99.90;;;;;;5024805;28;20167;-83
2021/03/30 05:03:07;;;;;;;7.90;3.28;;;5.60;99.90;;;;;;5044894;28;20137;-82
2021/03/30 05:05:32;;;;;;;8.35;3.13;;;5.60;99.90;;;;;;5043496;28;20021;-82
2021/03/30 05:07:58;;;;;;;7.30;3.22;;;5.50;99.90;;;;;;5032435;28;20072;-80
2021/03/30 05:10:25;;;;;;;6.88;3.40;;;5.60;99.90;;;;;;5050842;28;20079;-79
2021/03/30 05:12:51;;;;;;;9.35;3.40;;;5.50;99.90;;;;;;5048380;28;20040;-80
2021/03/30 05:15:17;;;;;;;9.80;3.38;;;5.50;99.90;;;;;;5026422;28;20033;-80
2021/03/30 05:17:42;;;;;;;10.88;3.58;;;5.50;99.90;;;;;;5050152;28;20036;-81
2021/03/30 05:20:08;;;;;;;10.90;4.20;;;5.50;99.90;;;;;;5035454;28;20469;-81
2021/03/30 05:22:34;;;;;;;11.25;4.00;;;5.50;99.90;;;;;;5038540;28;20484;-79
2021/03/30 05:25:01;;;;;;;8.07;3.70;;;5.50;99.90;;;;;;5035654;28;20037;-81
2021/03/30 05:27:27;;;;;;;10.57;4.00;;;5.60;99.90;;;;;;5051422;28;20025;-81
2021/03/30 05:29:53;;;;;;;10.50;3.58;;;5.70;99.90;;;;;;5058791;28;20151;-80
2021/03/30 05:32:19;;;;;;;7.88;3.28;;;5.80;99.90;;;;;;5046717;28;20048;-80
2021/03/30 05:34:46;;;;;;;10.65;4.03;;;5.80;99.90;;;;;;5049155;28;20472;-82
2021/03/30 05:37:11;;;;;;;8.23;3.97;;;6.10;99.90;;;;;;5051012;28;20032;-81
2021/03/30 05:39:37;;;;;;;8.70;3.70;;;6.10;99.90;;;;;;5036557;28;20037;-81
2021/03/30 05:42:04;;;;;;;10.60;3.72;;;6.30;99.90;;;;;;5042338;28;20099;-81
2021/03/30 05:44:30;;;;;;;11.68;4.10;;;6.40;99.90;;;;;;5050504;28;20026;-82
2021/03/30 05:47:09;;;;;;;16.77;4.53;;;6.50;99.90;;;;;;5046853;28;20069;-82
2021/03/30 05:49:38;;;;;;;9.02;4.35;;;6.60;99.90;;;;;;5042164;28;20468;-81
2021/03/30 05:52:12;;;;;;;8.40;4.07;;;6.70;99.90;;;;;;5048853;28;20036;-81
2021/03/30 05:54:41;;;;;;;11.38;4.72;;;6.90;99.90;;;;;;5050299;28;20036;-82
2021/03/30 05:57:10;;;;;;;8.23;4.55;;;7.10;99.90;;;;;;5047676;28;20045;-81
2021/03/30 05:59:36;;;;;;;10.65;4.53;;;7.40;99.90;;;;;;5037916;28;20056;-81
2021/03/30 06:02:10;;;;;;;14.35;4.40;;;8.10;99.90;;;;;;5036613;28;20033;-81
2021/03/30 06:04:37;;;;;;;14.30;4.30;;;8.90;99.90;;;;;;5040327;28;20159;-83
2021/03/30 06:07:02;;;;;;;11.70;4.30;;;9.70;99.20;;;;;;5048440;28;20512;-81
2021/03/30 06:09:29;;;;;;;11.73;3.75;;;10.20;98.50;;;;;;5048931;28;20037;-82
2021/03/30 06:11:55;;;;;;;7.90;3.85;;;10.80;96.90;;;;;;5046404;28;20025;-83
2021/03/30 06:14:37;;;;;;;10.00;3.63;;;11.30;96.10;;;;;;5032843;28;20511;-82
2021/03/30 06:17:04;;;;;;;9.18;3.65;;;11.80;95.10;;;;;;5033229;28;20526;-80
2021/03/30 06:19:30;;;;;;;8.27;3.00;;;12.20;94.50;;;;;;5031548;28;20090;-81
2021/03/30 06:22:01;;;;;;;9.63;3.33;;;12.20;94.20;;;;;;5041791;28;20033;-83
2021/03/30 06:24:32;;;;;;;9.07;3.70;;;12.30;94.00;;;;;;5051861;28;20033;-78
2021/03/30 06:27:03;;;;;;;9.38;3.58;;;12.10;93.70;;;;;;5041996;28;20025;-80
2021/03/30 06:29:35;;;;;;;10.27;4.00;;;11.40;94.10;;;;;;5048011;28;20358;-77
2021/03/30 06:32:05;;;;;;;10.57;3.42;;;11.10;94.60;;;;;;5049183;28;20039;-77
2021/03/30 06:34:32;;;;;;;10.10;3.55;;;10.70;94.80;;;;;;5047782;28;20073;-76
2021/03/30 06:36:58;;;;;;;9.07;3.75;;;10.40;95.30;;;;;;5034934;28;20029;-77
2021/03/30 06:39:35;;;;;;;8.57;3.85;;;10.10;95.70;;;;;;5032062;28;20053;-75
2021/03/30 06:42:08;;;;;;;10.57;3.65;;;10.00;95.80;;;;;;5023974;28;20076;-78
2021/03/30 06:44:38;;;;;;;11.32;3.85;;;9.90;95.80;;;;;;5023236;28;20085;-76
2021/03/30 06:47:19;;;;;;;10.00;3.58;;;10.00;96.30;;;;;;5023852;28;20077;-79
2021/03/30 06:50:09;;;;;;;9.00;4.03;;;10.10;96.00;;;;;;5028324;28;20026;-78
2021/03/30 06:52:37;;;;;;;12.23;3.80;;;10.00;95.90;;;;;;5024814;28;20921;-76
2021/03/30 06:55:07;;;;;;;12.52;4.28;;;10.20;95.80;;;;;;5043510;28;20069;-76
2021/03/30 06:57:37;;;;;;;;;;;10.90;95.50;;;;;;5024767;28;20126;-74
2021/03/30 07:00:04;;;;;;;;;;;11.30;94.60;;;;;;5024337;28;20018;-78
2021/03/30 07:02:31;;;;;;;8.85;3.60;;;12.00;94.50;;;;;;5023249;28;19956;-75
2021/03/30 07:04:56;;;;;;;9.98;3.03;;;12.20;93.40;;;;;;5015498;28;20029;-77
2021/03/30 07:07:23;;;;;;;8.20;3.65;;;12.30;92.90;;;;;;5025071;28;20025;-78
2021/03/30 07:09:52;;;;;;;6.55;3.15;;;12.20;93.40;;;;;;5019856;28;20066;-77
2021/03/30 07:12:23;;;;;;;7.88;3.25;;;11.90;92.70;;;;;;5021654;28;20477;-76
2021/03/30 07:14:50;;;;;;;6.53;2.53;;;11.90;93.30;;;;;;5023779;28;20037;-77
2021/03/30 07:17:30;;;;;;;7.85;3.28;;;11.70;93.10;;;;;;5033692;28;20041;-77
2021/03/30 07:19:59;;;;;;;9.75;3.10;;;11.70;93.60;;;;;;5024394;28;20428;-76
2021/03/30 07:22:26;;;;;;;7.65;2.75;;;11.80;93.60;;;;;;5029287;28;20054;-76
2021/03/30 07:25:03;;;;;;;7.00;2.55;;;11.90;93.40;;;;;;5031511;28;20029;-77
2021/03/30 07:27:45;;;;;;;8.27;2.42;;;12.00;93.20;;;;;;5018288;28;20025;-77
2021/03/30 07:30:13;;;;;;;29.60;4.70;;;12.10;93.00;;;;;;5022665;28;20069;-76
2021/03/30 07:32:53;;;;;;;7.38;2.78;;;12.20;93.70;;;;;;5023259;28;20160;-76
2021/03/30 07:35:21;;;;;;;12.88;3.00;;;12.30;93.20;;;;;;5016297;28;20033;-77
2021/03/30 07:38:14;;;;;;;9.45;2.53;;;12.40;93.40;;;;;;5027337;28;20594;-76
2021/03/30 07:40:41;;;;;;;6.32;2.70;;;12.40;93.10;;;;;;5025871;28;20040;-77
2021/03/30 07:43:09;;;;;;;10.00;2.72;;;12.60;93.10;;;;;;5010841;28;20499;-77
2021/03/30 07:45:39;;;;;;;11.40;3.17;;;12.70;92.90;;;;;;5022965;28;20026;-77
2021/03/30 07:48:06;;;;;;;9.85;2.80;;;12.80;92.90;;;;;;5015852;28;20225;-77
2021/03/30 07:50:49;;;;;;;7.28;2.80;;;12.90;92.40;;;;;;5017129;28;20112;-78
2021/03/30 07:53:43;;;;;;;9.85;3.15;;;13.10;92.50;;;;;;5021719;28;20061;-77
2021/03/30 07:56:25;;;;;;;11.40;2.75;;;13.10;91.70;;;;;;5022250;28;20037;-78
2021/03/30 07:58:56;;;;;;;6.10;2.53;;;13.20;91.60;;;;;;5027075;28;20115;-76
2021/03/30 08:01:24;;;;;;;5.40;2.42;;;13.30;92.00;;;;;;5027436;28;20021;-79
2021/03/30 08:03:52;;;;;;;11.63;2.78;;;13.50;92.20;;;;;;5024764;28;20042;-77
2021/03/30 08:06:46;;;;;;;9.25;2.42;;;13.70;91.50;;;;;;5023890;28;20061;-78
2021/03/30 08:09:14;;;;;;;9.70;2.83;;;13.80;91.70;;;;;;5025710;28;20511;-78
2021/03/30 08:11:39;;;;;;;7.10;2.58;;;13.80;90.90;;;;;;5022972;28;20030;-77
2021/03/30 08:14:12;;;;;;;8.98;3.13;;;14.00;91.10;;;;;;5023063;28;20667;-78
2021/03/30 08:16:39;;;;;;;15.35;3.58;;;14.00;91.20;;;;;;5027479;28;20018;-77
2021/03/30 08:19:11;;;;;;;13.52;3.47;;;14.20;91.10;;;;;;5023633;28;20052;-78
2021/03/30 08:22:03;;;;;;;11.45;4.78;;;14.30;91.00;;;;;;5019534;28;20124;-77
2021/03/30 08:24:44;;;;;;;12.15;3.90;;;14.40;90.70;;;;;;5024001;28;20029;-77
2021/03/30 08:27:35;;;;;;;9.40;4.03;;;14.40;90.50;;;;;;5010437;28;20096;-77
2021/03/30 08:30:13;;;;;;;12.00;4.85;;;14.30;90.20;;;;;;5019727;28;20029;-75
2021/03/30 08:32:45;;;;;;;12.65;4.97;;;14.40;90.20;;;;;;5027322;28;20037;-77
2021/03/30 08:35:27;;;;;;;14.57;5.35;;;14.60;89.90;;;;;;5023041;28;20029;-76
2021/03/30 08:37:53;;;;;;;11.98;5.22;;;14.60;89.20;;;;;;5022273;28;20017;-76
2021/03/30 08:40:34;;;;;;;16.73;5.85;;;14.70;88.40;;;;;;5024805;28;20473;-77
2021/03/30 08:43:00;;;;;;;14.35;5.35;;;14.80;89.20;;;;;;5022290;28;20348;-77
2021/03/30 08:45:26;;;;;;;21.02;6.07;;;14.90;89.70;;;;;;5027480;28;20485;-77
2021/03/30 08:48:09;;;;;;;15.38;5.25;;;15.10;89.30;;;;;;5031312;28;20078;-77
2021/03/30 08:50:35;;;;;;;17.33;6.18;;;15.30;89.40;;;;;;5028225;28;20045;-76
2021/03/30 08:53:02;;;;;;;14.30;6.00;;;15.40;90.00;;;;;;5019770;28;20122;-78
2021/03/30 08:55:35;;;;;;;11.48;5.90;;;15.50;87.50;;;;;;5026282;28;20025;-77
2021/03/30 08:58:01;;;;;;;13.95;6.20;;;15.60;87.20;;;;;;5033151;28;20076;-78
2021/03/30 09:00:28;;;;;;;13.93;5.70;;;15.60;86.00;;;;;;5034230;28;20071;-77
2021/03/30 09:03:03;;;;;;;12.52;6.20;;;15.60;86.00;;;;;;5032892;28;20048;-79
2021/03/30 09:05:41;;;;;;;14.55;6.25;;;15.60;86.70;;;;;;5015879;28;20030;-77
2021/03/30 09:08:08;;;;;;;20.88;6.32;;;15.80;87.80;;;;;;5016411;28;20516;-77
2021/03/30 09:10:33;;;;;;;15.93;6.60;;;15.80;86.80;;;;;;5034953;28;20109;-78
2021/03/30 09:13:13;;;;;;;10.75;5.95;;;16.00;86.60;;;;;;5035895;28;20547;-79
2021/03/30 09:15:38;;;;;;;10.70;5.30;;;15.90;85.60;;;;;;5036468;28;20071;-78
2021/03/30 09:18:04;;;;;;;15.43;6.25;;;15.90;85.30;;;;;;5036045;28;20104;-80
2021/03/30 09:20:33;;;;;;;15.63;6.60;;;16.00;85.00;;;;;;5035594;28;20029;-79
2021/03/30 09:23:11;;;;;;;10.77;5.97;;;16.20;86.00;;;;;;5035698;28;20652;-77
2021/03/30 09:25:40;;;;;;;10.18;6.55;;;16.40;86.10;;;;;;5036692;28;20025;-80
2021/03/30 09:28:16;;;;;;;13.27;5.70;;;16.40;86.20;;;;;;5045622;28;20791;-79
2021/03/30 09:30:43;;;;;;;12.07;5.60;;;16.50;85.60;;;;;;5036617;28;20025;-80
2021/03/30 09:33:10;;;;;;;9.00;5.22;;;16.40;85.20;;;;;;5034937;28;20040;-79
2021/03/30 09:35:36;;;;;;;10.68;5.40;;;16.50;85.00;;;;;;5037156;28;20025;-80
2021/03/30 09:38:03;;;;;;;14.23;5.25;;;16.80;84.90;;;;;;5036723;28;20034;-78
2021/03/30 09:40:39;;;;;;;13.65;5.80;;;16.80;84.60;;;;;;5034214;28;20079;-78
2021/03/30 09:43:13;;;;;;;15.60;6.32;;;16.60;84.30;;;;;;5029189;28;20036;-81
2021/03/30 09:45:40;;;;;;;13.52;5.25;;;16.80;84.90;;;;;;5033895;28;20025;-80
2021/03/30 09:48:09;;;;;;;17.15;5.50;;;17.00;85.20;;;;;;5035826;28;20037;-78
2021/03/30 09:50:45;;;;;;;13.45;5.93;;;17.00;85.50;;;;;;5026003;28;20026;-78
2021/03/30 09:53:10;;;;;;;11.88;5.40;;;17.10;85.90;;;;;;5032859;28;20044;-80
2021/03/30 09:55:46;;;;;;;11.25;6.53;;;17.20;86.30;;;;;;5032249;28;20033;-79
2021/03/30 09:58:18;;;;;;;10.07;6.57;;;17.00;81.70;;;;;;5033257;28;20022;-82
2021/03/30 10:00:50;;;;;;;12.77;6.38;;;17.20;83.30;;;;;;5030947;28;20049;-80
2021/03/30 10:03:17;;;;;;;11.07;5.97;;;17.30;83.50;;;;;;5031071;28;20046;-81
2021/03/30 10:05:44;;;;;;;11.20;5.75;;;17.50;83.90;;;;;;5032719;28;20093;-81
2021/03/30 10:08:24;;;;;;;9.93;6.38;;;17.60;84.40;;;;;;5032362;28;20556;-80
2021/03/30 10:10:53;;;;;;;10.57;5.40;;;17.60;82.90;;;;;;5032621;28;20045;-79
2021/03/30 10:13:26;;;;;;;11.52;5.63;;;17.70;82.80;;;;;;5029490;28;20116;-80
2021/03/30 10:15:52;;;;;;;12.65;6.18;;;17.80;81.70;;;;;;5034232;28;20485;-80
2021/03/30 10:18:20;;;;;;;10.88;5.18;;;17.70;81.30;;;;;;5036996;28;20041;-80
2021/03/30 10:20:46;;;;;;;8.27;5.05;;;17.80;78.90;;;;;;5032992;28;20173;-80
2021/03/30 10:23:16;;;;;;;7.88;4.45;;;17.50;81.90;;;;;;5032762;28;20432;-79
2021/03/30 10:25:43;;;;;;;10.88;4.40;;;17.50;79.70;;;;;;5032254;28;20120;-79
2021/03/30 10:28:10;;;;;;;13.45;5.18;;;17.70;82.00;;;;;;5030843;28;20064;-81
2021/03/30 10:30:43;;;;;;;7.45;4.45;;;17.80;81.50;;;;;;5032613;28;20029;-78
2021/03/30 10:33:17;;;;;;;13.45;5.63;;;17.60;81.20;;;;;;5032441;28;20022;-80
2021/03/30 10:35:42;;;;;;;9.20;4.80;;;17.90;83.30;;;;;;5036775;28;20025;-79
2021/03/30 10:38:08;;;;;;;9.32;5.40;;;18.10;83.20;;;;;;5032209;28;20412;-80
2021/03/30 10:40:37;;;;;;;7.82;5.25;;;18.20;82.50;;;;;;5047928;28;20037;-79
2021/03/30 10:43:22;;;;;;;10.63;4.70;;;18.10;80.70;;;;;;5032238;28;20033;-80
2021/03/30 10:45:48;;;;;;;9.27;5.30;;;18.00;81.10;;;;;;5032148;28;20687;-79
2021/03/30 10:48:14;;;;;;;8.95;5.32;;;18.00;81.50;;;;;;5033615;28;20112;-80
2021/03/30 10:50:40;;;;;;;10.75;5.30;;;18.10;82.10;;;;;;5032960;28;20095;-78
2021/03/30 10:53:06;;;;;;;6.72;4.93;;;18.10;80.60;;;;;;5036493;28;20037;-78
2021/03/30 10:55:33;;;;;;;8.32;5.05;;;18.10;80.80;;;;;;5034203;28;20358;-78
2021/03/30 10:58:00;;;;;;;9.18;5.13;;;18.40;80.40;;;;;;5032622;28;20033;-81
2021/03/30 11:00:25;;;;;;;10.18;5.50;;;18.30;80.10;;;;;;5031610;28;20029;-80
2021/03/30 11:02:51;;;;;;;16.35;6.20;;;18.50;80.10;;;;;;5031901;28;20045;-79
2021/03/30 11:05:17;;;;;;;11.02;6.07;;;18.50;80.50;;;;;;5031763;28;20030;-77
2021/03/30 11:07:43;;;;;;;9.55;4.97;;;18.40;80.10;;;;;;5030778;28;20083;-78
2021/03/30 11:10:12;;;;;;;7.93;4.55;;;18.50;80.60;;;;;;5031600;28;20115;-80
2021/03/30 11:12:39;;;;;;;6.38;4.50;;;18.70;79.40;;;;;;5031378;28;20025;-79
2021/03/30 11:15:06;;;;;;;9.98;6.18;;;18.80;80.90;;;;;;5031492;28;20022;-79
2021/03/30 11:17:32;;;;;;;8.05;5.10;;;18.60;79.10;;;;;;5029595;28;20044;-80
2021/03/30 11:19:58;;;;;;;7.32;4.68;;;18.60;79.60;;;;;;5031202;28;20029;-80
2021/03/30 11:22:23;;;;;;;9.52;5.28;;;18.60;80.30;;;;;;5030970;28;20025;-80
2021/03/30 11:24:53;;;;;;;6.50;4.80;;;18.80;81.10;;;;;;5031809;28;20108;-79
2021/03/30 11:27:19;;;;;;;7.18;4.65;;;18.80;80.20;;;;;;5031063;28;20802;-78
2021/03/30 11:32:36;;;;;;;11.52;5.70;;;18.60;80.90;;;;;;5031571;28;20064;-79
2021/03/30 11:35:11;;;;;;;11.43;5.68;;;18.60;80.90;;;;;;5031315;28;20132;-79
2021/03/30 11:38:04;;;;;;;9.65;5.28;;;18.90;81.40;;;;;;5030892;28;20104;-79
2021/03/30 11:40:30;;;;;;;7.18;5.13;;;19.00;81.30;;;;;;5029842;28;20057;-78
2021/03/30 11:42:56;;;;;;;9.13;4.65;;;19.20;81.50;;;;;;5031849;28;20080;-79
2021/03/30 11:45:21;;;;;;;9.10;4.43;;;19.20;81.80;;;;;;5032159;28;20064;-81
2021/03/30 11:47:47;;;;;;;8.85;4.72;;;19.40;81.80;;;;;;5043557;28;20025;-80
2021/03/30 11:50:13;;;;;;;9.68;5.57;;;19.50;81.50;;;;;;5034232;28;20556;-80
2021/03/30 11:52:38;;;;;;;8.07;4.45;;;19.60;80.80;;;;;;5031231;28;20025;-80
2021/03/30 11:55:05;;;;;;;8.27;4.35;;;19.50;80.20;;;;;;5030536;28;20021;-80
2021/03/30 11:57:31;;;;;;;10.70;5.57;;;19.50;80.10;;;;;;5034141;28;20068;-80
2021/03/30 11:59:57;;;;;;;7.43;4.55;;;19.70;80.80;;;;;;5029333;28;20477;-78
2021/03/30 12:02:23;;;;;;;12.68;4.47;;;19.70;81.40;;;;;;5025760;28;20041;-79
2021/03/30 12:04:48;;;;;;;7.25;4.50;;;19.80;79.30;;;;;;5015431;28;20440;-78
2021/03/30 12:07:14;;;;;;;7.47;4.18;;;19.70;78.60;;;;;;5017562;28;20064;-79
2021/03/30 12:09:39;;;;;;;6.18;4.38;;;19.30;79.10;;;;;;5022319;28;20044;-78
2021/03/30 12:12:05;;;;;;;9.90;5.18;;;19.40;79.40;;;;;;5026756;28;20133;-78
2021/03/30 12:14:31;;;;;;;10.27;4.47;;;19.60;79.00;;;;;;5013500;28;20045;-78
2021/03/30 12:16:57;;;;;;;7.32;3.65;;;19.90;79.60;;;;;;5025552;28;20481;-79
2021/03/30 12:19:23;;;;;;;6.18;3.40;;;20.00;77.50;;;;;;5019918;28;20029;-79
2021/03/30 12:21:48;;;;;;;13.07;3.30;;;20.10;77.50;;;;;;5028170;28;20037;-81
2021/03/30 12:24:14;;;;;;;6.50;3.15;;;20.30;79.30;;;;;;5022992;28;20044;-80
2021/03/30 12:26:40;;;;;;;8.75;4.35;;;20.40;77.20;;;;;;5019267;28;20096;-79
2021/03/30 12:29:06;;;;;;;9.32;5.03;;;20.40;78.00;;;;;;5015855;28;20111;-80
2021/03/30 12:31:33;;;;;;;13.07;5.50;;;20.40;78.40;;;;;;5032026;28;20048;-82
2021/03/30 12:33:59;;;;;;;12.20;4.75;;;20.40;79.40;;;;;;5032572;28;20546;-81
2021/03/30 12:36:25;;;;;;;9.10;4.45;;;20.70;78.40;;;;;;5038509;28;20017;-83
2021/03/30 12:38:51;;;;;;;11.70;4.45;;;20.70;78.60;;;;;;5016701;28;20030;-81
2021/03/30 12:41:17;;;;;;;7.07;4.50;;;20.90;78.00;;;;;;5019549;28;20052;-82
2021/03/30 12:43:43;;;;;;;8.70;4.55;;;20.50;77.30;;;;;;5020859;28;20029;-79
2021/03/30 12:46:10;;;;;;;10.40;5.18;;;20.40;77.60;;;;;;5019654;28;20025;-81
2021/03/30 12:48:36;;;;;;;8.35;3.80;;;20.10;77.90;;;;;;5026589;28;20049;-80
2021/03/30 12:51:02;;;;;;;9.05;4.72;;;20.30;78.80;;;;;;5023598;28;20030;-85
2021/03/30 12:53:27;;;;;;;8.38;4.63;;;20.30;77.70;;;;;;5021883;28;20047;-79
2021/03/30 12:55:53;;;;;;;8.20;3.97;;;20.40;78.00;;;;;;5032600;28;20052;-78
2021/03/30 12:58:18;;;;;;;5.50;3.05;;;20.30;77.20;;;;;;5019835;28;20424;-81
2021/03/30 13:00:44;;;;;;;6.97;4.05;;;20.40;76.10;;;;;;5024866;28;20033;-81
2021/03/30 13:03:10;;;;;;;6.50;4.22;;;20.50;75.10;;;;;;5028668;28;20098;-79